createdAt,value
2018-04-10T00:01:07.675Z,14.55
2018-04-10T00:03:37.974Z,14.50
2018-04-10T00:06:07.865Z,14.34
2018-04-10T00:08:37.195Z,14.10
2018-04-10T00:11:06.195Z,14.06
2018-04-10T00:13:36.908Z,14.01
2018-04-10T00:16:05.660Z,13.91
2018-04-10T00:18:34.328Z,13.91
2018-04-10T00:21:04.160Z,13.92
2018-04-10T00:23:32.784Z,14.01
2018-04-10T00:26:02.784Z,13.99
2018-04-10T00:28:32.105Z,14.09
2018-04-10T00:31:01.232Z,14.01
2018-04-10T00:33:30.319Z,13.89
2018-04-10T00:35:59.599Z,13.77
2018-04-10T00:38:28.111Z,13.81
2018-04-10T00:40:57.093Z,13.86
2018-04-10T00:43:26.932Z,13.99
2018-04-10T00:45:56.496Z,14.03
2018-04-10T00:48:24.916Z,13.99
2018-04-10T00:50:55.331Z,13.92
2018-04-10T00:53:36.370Z,13.96
2018-04-10T00:56:05.930Z,13.94
2018-04-10T00:58:35.174Z,13.94
2018-04-10T01:01:03.531Z,13.86
2018-04-10T01:03:32.073Z,13.84
2018-04-10T01:06:00.479Z,13.77
2018-04-10T01:08:29.881Z,13.78
2018-04-10T01:10:58.235Z,13.58
2018-04-10T01:13:27.294Z,13.66
2018-04-10T01:15:56.465Z,13.68
2018-04-10T01:18:24.863Z,13.52
2018-04-10T01:20:54.648Z,13.48
2018-04-10T01:23:23.039Z,13.42
2018-04-10T01:25:51.424Z,13.16
2018-04-10T01:28:20.406Z,13.19
2018-04-10T01:30:49.512Z,13.21
2018-04-10T01:33:18.769Z,13.17
2018-04-10T01:35:48.776Z,13.12
2018-04-10T01:38:18.060Z,13.21
2018-04-10T01:40:47.351Z,13.25
2018-04-10T01:43:17.181Z,13.18
2018-04-10T01:45:46.275Z,13.30
2018-04-10T01:48:15.521Z,13.12
2018-04-10T01:50:45.505Z,13.14
2018-04-10T01:53:14.229Z,13.16
2018-04-10T01:55:44.252Z,13.10
2018-04-10T01:58:13.120Z,13.18
2018-04-10T02:00:42.491Z,13.15
2018-04-10T02:03:11.586Z,13.09
2018-04-10T02:05:40.064Z,13.09
2018-04-10T02:08:09.247Z,13.09
2018-04-10T02:10:38.732Z,13.09
2018-04-10T02:13:07.130Z,13.05
2018-04-10T02:15:36.007Z,13.02
2018-04-10T02:18:05.094Z,13.04
2018-04-10T02:20:34.327Z,13.08
2018-04-10T02:23:02.716Z,13.07
2018-04-10T02:25:32.000Z,13.13
2018-04-10T02:28:00.386Z,13.09
2018-04-10T02:30:28.912Z,13.09
2018-04-10T02:32:57.339Z,13.05
2018-04-10T02:35:27.198Z,13.01
2018-04-10T02:37:57.471Z,12.94
2018-04-10T02:40:26.010Z,12.91
2018-04-10T02:42:55.175Z,12.82
2018-04-10T02:45:23.823Z,12.83
2018-04-10T02:47:53.045Z,12.77
2018-04-10T02:50:22.142Z,12.75
2018-04-10T02:52:52.551Z,12.77
2018-04-10T02:55:20.905Z,12.62
2018-04-10T02:57:49.711Z,12.62
2018-04-10T03:00:18.081Z,12.62
2018-04-10T03:02:46.858Z,12.52
2018-04-10T03:05:15.859Z,12.60
2018-04-10T03:07:45.719Z,12.50
2018-04-10T03:10:15.916Z,12.59
2018-04-10T03:12:44.251Z,12.54
2018-04-10T03:15:12.656Z,12.38
2018-04-10T03:17:41.814Z,12.38
2018-04-10T03:20:11.038Z,12.36
2018-04-10T03:22:39.451Z,12.35
2018-04-10T03:25:08.733Z,12.07
2018-04-10T03:27:38.056Z,12.17
2018-04-10T03:30:07.293Z,12.24
2018-04-10T03:32:36.898Z,12.28
2018-04-10T03:35:05.406Z,12.31
2018-04-10T03:37:33.841Z,12.09
2018-04-10T03:40:03.071Z,12.13
2018-04-10T03:42:31.489Z,11.84
2018-04-10T03:45:00.403Z,11.97
2018-04-10T03:47:30.477Z,12.07
2018-04-10T03:49:59.213Z,12.15
2018-04-10T03:52:27.603Z,12.16
2018-04-10T03:54:56.622Z,12.21
2018-04-10T03:57:25.562Z,12.19
2018-04-10T03:59:54.205Z,11.98
2018-04-10T04:02:23.163Z,11.86
2018-04-10T04:04:51.562Z,11.80
2018-04-10T04:07:20.055Z,11.69
2018-04-10T04:09:49.194Z,11.75
2018-04-10T04:12:17.822Z,11.87
2018-04-10T04:14:47.177Z,11.97
2018-04-10T04:17:27.270Z,11.82
2018-04-10T04:20:08.526Z,11.50
2018-04-10T04:22:40.741Z,11.54
2018-04-10T04:25:10.954Z,11.52
2018-04-10T04:27:39.356Z,11.52
2018-04-10T04:30:07.720Z,11.52
2018-04-10T04:32:36.100Z,11.42
2018-04-10T04:35:04.473Z,11.49
2018-04-10T04:37:32.799Z,11.49
2018-04-10T04:40:02.212Z,11.53
2018-04-10T04:42:31.606Z,11.50
2018-04-10T04:45:00.370Z,11.53
2018-04-10T04:47:28.741Z,11.67
2018-04-10T04:49:58.970Z,11.69
2018-04-10T04:52:28.086Z,11.73
2018-04-10T04:54:56.441Z,11.68
2018-04-10T04:57:24.822Z,11.66
2018-04-10T04:59:53.189Z,11.68
2018-04-10T05:02:21.591Z,11.59
2018-04-10T05:04:50.045Z,11.59
2018-04-10T05:07:19.052Z,11.55
2018-04-10T05:09:47.427Z,11.37
2018-04-10T05:12:15.801Z,11.39
2018-04-10T05:14:44.220Z,11.26
2018-04-10T05:17:14.064Z,11.22
2018-04-10T05:19:42.439Z,11.13
2018-04-10T05:22:11.036Z,11.06
2018-04-10T05:24:41.561Z,11.20
2018-04-10T05:27:10.581Z,11.21
2018-04-10T05:29:38.988Z,11.34
2018-04-10T05:32:07.404Z,11.32
2018-04-10T05:34:35.773Z,11.44
2018-04-10T05:37:04.784Z,11.57
2018-04-10T05:39:34.623Z,11.59
2018-04-10T05:42:02.985Z,11.76
2018-04-10T05:44:32.037Z,11.85
2018-04-10T05:47:02.085Z,11.89
2018-04-10T05:49:31.365Z,12.09
2018-04-10T05:52:00.234Z,12.12
2018-04-10T05:54:28.917Z,12.24
2018-04-10T05:56:59.126Z,12.25
2018-04-10T05:59:27.522Z,12.35
2018-04-10T06:01:56.608Z,12.42
2018-04-10T06:04:25.214Z,12.54
2018-04-10T06:06:54.500Z,12.53
2018-04-10T06:09:24.855Z,12.62
2018-04-10T06:11:54.074Z,12.64
2018-04-10T06:14:23.985Z,12.76
2018-04-10T06:16:53.044Z,12.80
2018-04-10T06:19:22.603Z,12.86
2018-04-10T06:21:51.525Z,12.79
2018-04-10T06:24:20.305Z,12.79
2018-04-10T06:26:49.724Z,12.72
2018-04-10T06:29:18.421Z,12.74
2018-04-10T06:31:46.868Z,12.60
2018-04-10T06:34:15.671Z,12.68
2018-04-10T06:36:44.936Z,12.66
2018-04-10T06:39:13.264Z,12.73
2018-04-10T06:41:43.442Z,12.85
2018-04-10T06:44:12.725Z,12.90
2018-04-10T06:46:43.209Z,12.96
2018-04-10T06:49:11.622Z,13.05
2018-04-10T06:51:40.902Z,13.14
2018-04-10T06:54:09.285Z,13.27
2018-04-10T06:56:38.430Z,13.31
2018-04-10T06:59:07.233Z,13.39
2018-04-10T07:01:35.638Z,13.44
2018-04-10T07:04:04.832Z,13.53
2018-04-10T07:06:34.054Z,13.71
2018-04-10T07:09:04.734Z,13.74
2018-04-10T07:11:33.927Z,13.90
2018-04-10T07:14:02.885Z,13.82
2018-04-10T07:16:31.259Z,14.02
2018-04-10T07:18:59.820Z,14.15
2018-04-10T07:21:28.189Z,14.36
2018-04-10T07:23:56.554Z,14.47
2018-04-10T07:26:24.896Z,14.63
2018-04-10T07:28:53.264Z,14.76
2018-04-10T07:31:21.653Z,14.82
2018-04-10T07:33:50.680Z,15.03
2018-04-10T07:36:19.049Z,15.13
2018-04-10T07:38:47.413Z,15.36
2018-04-10T07:41:16.008Z,15.46
2018-04-10T07:43:45.346Z,15.67
2018-04-10T07:46:13.727Z,15.75
2018-04-10T07:48:43.037Z,15.90
2018-04-10T07:51:11.364Z,16.00
2018-04-10T07:53:39.753Z,16.24
2018-04-10T07:56:08.299Z,16.32
2018-04-10T07:58:37.309Z,16.40
2018-04-10T08:01:05.628Z,16.30
2018-04-10T08:03:34.274Z,16.41
2018-04-10T08:06:03.076Z,16.48
2018-04-10T08:08:32.126Z,16.58
2018-04-10T08:11:00.861Z,16.78
2018-04-10T08:13:30.920Z,16.57
2018-04-10T08:15:59.284Z,16.78
2018-04-10T08:18:27.615Z,16.95
2018-04-10T08:20:56.214Z,17.10
2018-04-10T08:23:25.273Z,16.76
2018-04-10T08:25:53.630Z,16.75
2018-04-10T08:28:21.994Z,17.08
2018-04-10T08:30:50.476Z,17.14
2018-04-10T08:33:19.228Z,17.36
2018-04-10T08:35:48.525Z,17.61
2018-04-10T08:38:16.866Z,17.89
2018-04-10T08:40:46.153Z,17.99
2018-04-10T08:43:15.227Z,18.12
2018-04-10T08:45:43.620Z,18.09
2018-04-10T08:48:12.367Z,18.31
2018-04-10T08:50:41.579Z,18.42
2018-04-10T08:53:09.918Z,18.65
2018-04-10T08:55:38.278Z,18.67
2018-04-10T08:58:06.671Z,18.79
2018-04-10T09:00:35.016Z,18.72
2018-04-10T09:03:03.356Z,18.82
2018-04-10T09:05:33.382Z,18.77
2018-04-10T09:08:01.714Z,18.89
2018-04-10T09:10:30.076Z,18.94
2018-04-10T09:12:58.428Z,18.99
2018-04-10T09:15:26.793Z,18.94
2018-04-10T09:17:55.118Z,19.07
2018-04-10T09:20:23.488Z,19.16
2018-04-10T09:22:51.813Z,19.11
2018-04-10T09:25:20.176Z,19.28
2018-04-10T09:27:48.653Z,19.24
2018-04-10T09:30:17.568Z,19.32
2018-04-10T09:32:45.900Z,19.42
2018-04-10T09:35:14.258Z,19.48
2018-04-10T09:37:43.169Z,19.42
2018-04-10T09:40:11.804Z,19.63
2018-04-10T09:42:40.133Z,19.85
2018-04-10T09:45:08.498Z,20.19
2018-04-10T09:47:37.624Z,20.06
2018-04-10T09:50:05.981Z,19.79
2018-04-10T09:52:34.309Z,19.87
2018-04-10T09:55:03.691Z,20.07
2018-04-10T09:57:32.386Z,20.31
2018-04-10T10:00:00.777Z,20.58
2018-04-10T10:02:30.117Z,20.81
2018-04-10T10:04:58.521Z,21.12
2018-04-10T10:07:26.846Z,21.11
2018-04-10T10:09:55.424Z,21.61
2018-04-10T10:12:23.980Z,21.42
2018-04-10T10:14:52.679Z,21.59
2018-04-10T10:17:21.731Z,21.51
2018-04-10T10:19:50.128Z,21.41
2018-04-10T10:22:19.337Z,21.51
2018-04-10T10:24:47.784Z,21.41
2018-04-10T10:27:17.035Z,21.33
2018-04-10T10:29:45.391Z,21.17
2018-04-10T10:32:14.396Z,21.50
2018-04-10T10:34:42.754Z,21.21
2018-04-10T10:37:11.468Z,21.55
2018-04-10T10:39:40.593Z,21.34
2018-04-10T10:42:08.944Z,21.04
2018-04-10T10:44:37.264Z,21.65
2018-04-10T10:47:06.307Z,20.92
2018-04-10T10:49:34.749Z,21.65
2018-04-10T10:52:03.092Z,21.79
2018-04-10T10:54:31.419Z,22.02
2018-04-10T10:56:59.849Z,22.25
2018-04-10T10:59:28.812Z,22.47
2018-04-10T11:01:57.201Z,22.48
2018-04-10T11:04:25.964Z,22.07
2018-04-10T11:06:55.227Z,22.17
2018-04-10T11:09:23.557Z,22.15
2018-04-10T11:11:52.564Z,22.23
2018-04-10T11:14:21.940Z,22.17
2018-04-10T11:16:50.285Z,21.24
2018-04-10T11:19:19.356Z,22.02
2018-04-10T11:21:47.714Z,22.28
2018-04-10T11:24:16.497Z,22.77
2018-04-10T11:26:44.843Z,22.87
2018-04-10T11:29:13.990Z,21.91
2018-04-10T11:31:42.338Z,22.68
2018-04-10T11:34:11.017Z,23.00
2018-04-10T11:36:39.596Z,23.40
2018-04-10T11:39:07.938Z,23.67
2018-04-10T11:41:36.289Z,23.42
2018-04-10T11:44:04.770Z,23.13
2018-04-10T11:46:34.053Z,23.38
2018-04-10T11:49:02.469Z,23.56
2018-04-10T11:51:30.864Z,23.82
2018-04-10T11:53:59.195Z,24.07
2018-04-10T11:56:27.546Z,24.11
2018-04-10T11:58:55.862Z,24.26
2018-04-10T12:01:25.368Z,24.48
2018-04-10T12:03:54.128Z,24.57
2018-04-10T12:06:23.363Z,24.25
2018-04-10T12:08:52.040Z,24.22
2018-04-10T12:11:20.396Z,23.37
2018-04-10T12:13:48.782Z,24.27
2018-04-10T12:16:17.605Z,24.82
2018-04-10T12:18:46.645Z,24.80
2018-04-10T12:21:17.574Z,24.65
2018-04-10T12:23:47.196Z,24.22
2018-04-10T12:26:15.571Z,24.67
2018-04-10T12:28:44.689Z,25.03
2018-04-10T12:31:13.034Z,25.23
2018-04-10T12:33:42.210Z,25.77
2018-04-10T12:36:10.557Z,26.29
2018-04-10T12:38:39.870Z,26.34
2018-04-10T12:41:09.135Z,26.29
2018-04-10T12:43:37.516Z,26.46
2018-04-10T12:46:06.116Z,26.94
2018-04-10T12:48:34.461Z,27.36
2018-04-10T12:51:03.724Z,27.60
2018-04-10T12:53:32.194Z,27.91
2018-04-10T12:56:00.553Z,27.67
2018-04-10T12:58:30.657Z,27.79
2018-04-10T13:00:59.544Z,28.13
2018-04-10T13:03:28.825Z,27.88
2018-04-10T13:05:57.182Z,27.68
2018-04-10T13:08:25.504Z,27.42
2018-04-10T13:10:54.286Z,27.05
2018-04-10T13:13:24.222Z,26.01
2018-04-10T13:15:52.575Z,26.52
2018-04-10T13:18:21.151Z,26.61
2018-04-10T13:20:50.246Z,27.05
2018-04-10T13:23:18.593Z,27.05
2018-04-10T13:25:47.004Z,26.22
2018-04-10T13:28:15.367Z,26.23
2018-04-10T13:30:44.369Z,26.31
2018-04-10T13:33:13.613Z,26.50
2018-04-10T13:35:41.970Z,26.48
2018-04-10T13:38:10.331Z,25.90
2018-04-10T13:40:38.663Z,26.30
2018-04-10T13:43:07.017Z,26.58
2018-04-10T13:45:36.328Z,26.66
2018-04-10T13:48:05.686Z,26.54
2018-04-10T13:50:34.054Z,26.71
2018-04-10T13:53:03.217Z,26.46
2018-04-10T13:55:31.611Z,26.06
2018-04-10T13:57:59.959Z,26.06
2018-04-10T14:00:28.304Z,26.27
2018-04-10T14:02:56.687Z,26.10
2018-04-10T14:05:25.857Z,26.01
2018-04-10T14:07:54.226Z,26.18
2018-04-10T14:10:22.688Z,26.33
2018-04-10T14:12:51.756Z,26.31
2018-04-10T14:15:20.104Z,26.36
2018-04-10T14:17:48.461Z,25.53
2018-04-10T14:20:16.838Z,25.98
2018-04-10T14:22:46.607Z,25.91
2018-04-10T14:25:14.947Z,25.99
2018-04-10T14:27:43.643Z,25.87
2018-04-10T14:30:12.650Z,25.97
2018-04-10T14:32:41.260Z,25.89
2018-04-10T14:35:10.138Z,25.72
2018-04-10T14:37:38.725Z,25.80
2018-04-10T14:40:07.928Z,25.94
2018-04-10T14:42:36.522Z,25.74
2018-04-10T14:45:05.666Z,25.38
2018-04-10T14:47:34.774Z,25.11
2018-04-10T14:50:03.080Z,25.13
2018-04-10T14:52:33.094Z,25.12
2018-04-10T14:55:01.665Z,25.32
2018-04-10T14:57:30.339Z,25.48
2018-04-10T14:59:59.577Z,25.40
2018-04-10T15:02:27.945Z,25.31
2018-04-10T15:04:56.312Z,25.41
2018-04-10T15:07:24.676Z,25.31
2018-04-10T15:09:53.001Z,25.34
2018-04-10T15:12:22.406Z,25.28
2018-04-10T15:14:51.672Z,25.00
2018-04-10T15:17:20.043Z,25.15
2018-04-10T15:19:48.422Z,25.23
2018-04-10T15:22:18.341Z,25.19
2018-04-10T15:24:47.161Z,25.22
2018-04-10T15:27:15.574Z,25.26
2018-04-10T15:29:44.703Z,25.26
2018-04-10T15:32:13.816Z,25.10
2018-04-10T15:34:42.159Z,24.79
2018-04-10T15:37:12.543Z,24.68
2018-04-10T15:39:40.877Z,24.43
2018-04-10T15:42:09.237Z,24.21
2018-04-10T15:44:37.575Z,23.97
2018-04-10T15:47:06.010Z,23.84
2018-04-10T15:49:34.360Z,23.84
2018-04-10T15:52:03.647Z,23.37
2018-04-10T15:54:31.971Z,23.21
2018-04-10T15:57:00.588Z,22.88
2018-04-10T15:59:30.380Z,22.61
2018-04-10T16:01:59.149Z,22.19
2018-04-10T16:04:27.549Z,21.96
2018-04-10T16:06:55.886Z,21.13
2018-04-10T16:09:24.247Z,21.03
2018-04-10T16:11:53.607Z,20.88
2018-04-10T16:14:22.203Z,21.02
2018-04-10T16:16:51.447Z,20.52
2018-04-10T16:19:20.137Z,20.53
2018-04-10T16:21:49.200Z,20.74
2018-04-10T16:24:17.817Z,20.93
2018-04-10T16:26:48.850Z,21.00
2018-04-10T16:29:17.682Z,21.14
2018-04-10T16:31:46.017Z,21.08
2018-04-10T16:34:14.600Z,19.56
2018-04-10T16:36:43.260Z,18.81
2018-04-10T16:39:11.635Z,18.40
2018-04-10T16:41:40.872Z,18.30
2018-04-10T16:44:10.599Z,17.99
2018-04-10T16:46:38.931Z,18.00
2018-04-10T16:49:07.634Z,18.15
2018-04-10T16:51:35.993Z,18.08
2018-04-10T16:54:05.246Z,17.70
2018-04-10T16:56:34.768Z,17.73
2018-04-10T16:59:03.579Z,17.59
2018-04-10T17:01:32.835Z,17.92
2018-04-10T17:04:01.423Z,18.09
2018-04-10T17:06:31.337Z,18.20
2018-04-10T17:09:00.306Z,18.14
2018-04-10T17:11:28.824Z,18.28
2018-04-10T17:13:57.158Z,18.17
2018-04-10T17:16:25.518Z,17.94
2018-04-10T17:18:53.854Z,18.28
2018-04-10T17:21:22.783Z,18.36
2018-04-10T17:23:51.107Z,18.50
2018-04-10T17:26:19.818Z,18.50
2018-04-10T17:28:48.218Z,18.51
2018-04-10T17:31:19.234Z,18.40
2018-04-10T17:33:47.566Z,18.16
2018-04-10T17:36:15.924Z,17.92
2018-04-10T17:38:45.183Z,17.95
2018-04-10T17:41:14.472Z,18.01
2018-04-10T17:43:43.631Z,18.07
2018-04-10T17:46:12.001Z,18.07
2018-04-10T17:48:41.076Z,18.04
2018-04-10T17:51:10.167Z,18.15
2018-04-10T17:53:38.500Z,18.22
2018-04-10T17:56:07.089Z,18.19
2018-04-10T17:58:35.487Z,17.89
2018-04-10T18:01:03.857Z,17.59
2018-04-10T18:03:32.491Z,17.35
2018-04-10T18:06:02.026Z,17.04
2018-04-10T18:08:30.368Z,16.57
2018-04-10T18:10:58.811Z,16.52
2018-04-10T18:13:28.102Z,16.50
2018-04-10T18:15:56.445Z,16.56
2018-04-10T18:18:24.851Z,16.66
2018-04-10T18:20:53.204Z,16.71
2018-04-10T18:23:22.729Z,16.60
2018-04-10T18:25:51.808Z,16.37
2018-04-10T18:28:20.164Z,16.50
2018-04-10T18:30:48.736Z,16.24
2018-04-10T18:33:17.100Z,16.29
2018-04-10T18:35:45.668Z,16.62
2018-04-10T18:38:14.032Z,15.94
2018-04-10T18:40:42.375Z,16.16
2018-04-10T18:43:10.754Z,15.56
2018-04-10T18:45:39.207Z,15.85
2018-04-10T18:48:07.576Z,16.17
2018-04-10T18:50:36.520Z,16.46
2018-04-10T18:53:04.926Z,16.62
2018-04-10T18:55:34.071Z,16.66
2018-04-10T18:58:02.428Z,16.83
2018-04-10T19:00:30.760Z,16.10
2018-04-10T19:02:59.208Z,15.81
2018-04-10T19:05:27.625Z,16.07
2018-04-10T19:07:56.018Z,15.87
2018-04-10T19:10:24.344Z,16.12
2018-04-10T19:12:52.786Z,16.22
2018-04-10T19:15:21.164Z,16.26
2018-04-10T19:17:50.278Z,16.22
2018-04-10T19:20:18.622Z,15.70
2018-04-10T19:22:46.960Z,14.73
2018-04-10T19:25:16.181Z,14.70
2018-04-10T19:27:44.652Z,14.44
2018-04-10T19:30:13.078Z,14.67
2018-04-10T19:32:41.454Z,15.09
2018-04-10T19:35:09.861Z,15.33
2018-04-10T19:37:38.214Z,15.26
2018-04-10T19:40:06.566Z,15.30
2018-04-10T19:42:36.730Z,15.26
2018-04-10T19:45:06.227Z,15.27
2018-04-10T19:47:34.944Z,15.10
2018-04-10T19:50:03.309Z,14.94
2018-04-10T19:52:31.631Z,14.75
2018-04-10T19:54:59.979Z,14.75
2018-04-10T19:57:28.940Z,14.66
2018-04-10T19:59:57.355Z,14.54
2018-04-10T20:02:25.753Z,14.60
2018-04-10T20:04:54.099Z,14.59
2018-04-10T20:07:22.958Z,14.43
2018-04-10T20:09:51.378Z,14.51
2018-04-10T20:12:20.856Z,14.44
2018-04-10T20:14:49.201Z,14.44
2018-04-10T20:17:17.538Z,14.45
2018-04-10T20:19:46.498Z,14.51
2018-04-10T20:22:14.847Z,14.45
2018-04-10T20:24:43.206Z,14.49
2018-04-10T20:27:11.560Z,14.42
2018-04-10T20:29:39.965Z,14.46
2018-04-10T20:32:08.604Z,14.33
2018-04-10T20:34:37.797Z,14.27
2018-04-10T20:37:06.994Z,14.25
2018-04-10T20:39:35.339Z,14.20
2018-04-10T20:42:03.715Z,14.14
2018-04-10T20:44:32.699Z,14.04
2018-04-10T20:47:01.095Z,14.06
2018-04-10T20:49:29.882Z,13.96
2018-04-10T20:51:58.626Z,13.87
2018-04-10T20:54:26.978Z,13.89
2018-04-10T20:56:57.083Z,13.78
2018-04-10T20:59:25.702Z,13.80
2018-04-10T21:01:54.074Z,13.90
2018-04-10T21:04:22.652Z,13.71
2018-04-10T21:06:51.854Z,13.79
2018-04-10T21:09:20.196Z,13.90
2018-04-10T21:11:48.556Z,13.97
2018-04-10T21:14:16.910Z,14.22
2018-04-10T21:16:45.269Z,13.99
2018-04-10T21:19:13.936Z,13.93
2018-04-10T21:21:42.298Z,13.31
2018-04-10T21:24:10.771Z,12.87
2018-04-10T21:26:39.109Z,12.61
2018-04-10T21:29:07.487Z,12.50
2018-04-10T21:31:36.508Z,12.04
2018-04-10T21:34:05.106Z,11.92
2018-04-10T21:36:34.533Z,11.56
2018-04-10T21:39:03.943Z,11.51
2018-04-10T21:41:32.343Z,11.52
2018-04-10T21:44:00.708Z,11.34
2018-04-10T21:46:29.416Z,11.25
2018-04-10T21:48:58.701Z,11.15
2018-04-10T21:51:27.268Z,11.17
2018-04-10T21:53:55.622Z,11.25
2018-04-10T21:56:24.575Z,11.28
2018-04-10T21:58:53.272Z,11.41
2018-04-10T22:01:21.639Z,11.44
2018-04-10T22:03:50.096Z,11.13
2018-04-10T22:06:18.435Z,11.03
2018-04-10T22:08:46.852Z,10.87
2018-04-10T22:11:15.169Z,10.83
2018-04-10T22:13:43.549Z,10.82
2018-04-10T22:16:11.876Z,11.09
2018-04-10T22:18:40.845Z,10.91
2018-04-10T22:21:09.898Z,10.79
2018-04-10T22:23:38.759Z,11.03
2018-04-10T22:26:07.092Z,11.16
2018-04-10T22:28:36.334Z,11.37
2018-04-10T22:31:04.686Z,10.76
2018-04-10T22:33:33.221Z,10.86
2018-04-10T22:36:02.419Z,10.92
2018-04-10T22:38:30.818Z,10.86
2018-04-10T22:40:59.168Z,11.16
2018-04-10T22:43:28.749Z,11.09
2018-04-10T22:45:57.101Z,11.47
2018-04-10T22:48:25.434Z,11.29
2018-04-10T22:50:53.787Z,11.49
2018-04-10T22:53:22.234Z,11.13
2018-04-10T22:55:51.222Z,10.95
2018-04-10T22:58:19.567Z,11.33
2018-04-10T23:00:49.432Z,11.41
2018-04-10T23:03:20.432Z,11.60
2018-04-10T23:05:48.797Z,11.52
2018-04-10T23:08:17.124Z,11.56
2018-04-10T23:10:46.410Z,11.53
2018-04-10T23:13:14.810Z,11.61
2018-04-10T23:15:44.837Z,11.53
2018-04-10T23:18:13.194Z,11.68
2018-04-10T23:20:41.577Z,11.64
2018-04-10T23:23:09.903Z,11.34
2018-04-10T23:25:38.275Z,11.09
2018-04-10T23:28:06.971Z,11.04
2018-04-10T23:30:35.622Z,11.01
2018-04-10T23:33:04.225Z,10.95
2018-04-10T23:35:32.556Z,10.94
2018-04-10T23:38:00.914Z,10.98
2018-04-10T23:40:31.089Z,11.15
2018-04-10T23:42:59.676Z,11.09
2018-04-10T23:45:28.018Z,11.13
2018-04-10T23:47:56.418Z,11.17
2018-04-10T23:50:24.822Z,11.45
2018-04-10T23:52:53.897Z,11.61
2018-04-10T23:55:22.250Z,11.46
2018-04-10T23:57:50.602Z,11.61
